Time;durP1;ratioP1;P1;durP2;ratioP2;P2;SDS_P1;SDS_P2;PMS_P1;PMS_P2;Temp;Humidity;BMP_temperature;BMP_pressure;BME280_temperature;BME280_humidity;BME280_pressure;Samples;Min_cycle;Max_cycle;Signal;HPM_P1;HPM_P2
2023/03/14 00:00:53;;;;;;;0.50;0.40;;;11.50;99.90;;;;;;5061765;28;20377;-82
2023/03/14 00:03:18;;;;;;;0.60;0.60;;;11.40;99.90;;;;;;5060793;28;20396;-82
2023/03/14 00:05:44;;;;;;;1.50;0.43;;;11.30;99.90;;;;;;5060646;28;20948;-81
2023/03/14 00:08:09;;;;;;;0.70;0.50;;;11.10;99.90;;;;;;5059752;28;20389;-81
2023/03/14 00:10:36;;;;;;;1.70;0.40;;;11.10;99.90;;;;;;5059094;28;20391;-80
2023/03/14 00:13:02;;;;;;;0.70;0.47;;;11.10;99.90;;;;;;5040684;28;20383;-81
2023/03/14 00:15:27;;;;;;;0.50;0.40;;;11.30;99.90;;;;;;5032819;28;20467;-80
2023/03/14 00:17:53;;;;;;;0.50;0.30;;;11.40;99.90;;;;;;5072246;28;20492;-79
2023/03/14 00:20:18;;;;;;;0.97;0.40;;;11.60;78.70;;;;;;5055804;28;20404;-80
2023/03/14 00:22:44;;;;;;;0.60;0.40;;;11.60;99.90;;;;;;5072467;28;20415;-80
2023/03/14 00:25:10;;;;;;;0.40;0.40;;;11.60;99.90;;;;;;5065186;28;20404;-80
2023/03/14 00:27:36;;;;;;;0.40;0.30;;;11.60;99.90;;;;;;5062020;28;20467;-80
2023/03/14 00:30:03;;;;;;;0.57;0.35;;;11.70;1.00;;;;;;5048590;28;20390;-80
2023/03/14 00:32:28;;;;;;;0.60;0.32;;;11.80;1.00;;;;;;5053068;28;20382;-79
2023/03/14 00:34:54;;;;;;;0.70;0.40;;;11.90;1.00;;;;;;5032605;28;20459;-79
2023/03/14 00:37:19;;;;;;;0.60;0.40;;;12.00;1.00;;;;;;5028223;28;20391;-78
2023/03/14 00:39:45;;;;;;;0.60;0.40;;;11.90;1.00;;;;;;5026550;28;20399;-78
2023/03/14 00:42:11;;;;;;;0.90;0.40;;;12.10;99.90;;;;;;5058183;28;20405;-79
2023/03/14 00:44:36;;;;;;;1.70;0.40;;;12.10;1.00;;;;;;5065101;28;20388;-80
2023/03/14 00:47:02;;;;;;;0.50;0.40;;;12.10;99.90;;;;;;5062796;28;20469;-79
2023/03/14 00:49:27;;;;;;;0.70;0.40;;;12.10;99.90;;;;;;5062097;28;20791;-80
2023/03/14 00:51:53;;;;;;;0.70;0.40;;;12.10;99.90;;;;;;5045367;28;20382;-81
2023/03/14 00:54:19;;;;;;;0.60;0.50;;;12.10;99.90;;;;;;5064984;28;20427;-80
2023/03/14 00:56:45;;;;;;;0.52;0.40;;;12.10;99.90;;;;;;5065420;28;20413;-81
2023/03/14 00:59:10;;;;;;;1.83;0.40;;;11.60;99.90;;;;;;5051836;28;20427;-79
2023/03/14 01:01:36;;;;;;;1.50;0.40;;;11.90;1.00;;;;;;5034151;28;20537;-79
2023/03/14 01:04:02;;;;;;;1.50;0.60;;;11.90;99.90;;;;;;5049657;28;20402;-79
2023/03/14 01:06:29;;;;;;;0.70;0.40;;;11.80;1.00;;;;;;5031220;28;20437;-79
2023/03/14 01:08:55;;;;;;;0.90;0.30;;;11.70;1.00;;;;;;5035800;23;20415;-77
2023/03/14 01:11:24;;;;;;;0.70;0.50;;;11.70;1.00;;;;;;4990945;28;20378;-76
2023/03/14 01:13:50;;;;;;;1.50;0.50;;;11.70;1.00;;;;;;4990497;28;20386;-75
2023/03/14 01:16:18;;;;;;;0.90;0.52;;;11.80;1.00;;;;;;4990333;28;20812;-75
2023/03/14 01:18:45;;;;;;;1.70;0.80;;;11.80;1.00;;;;;;4990860;28;20936;-75
2023/03/14 01:21:25;;;;;;;1.30;0.50;;;11.80;99.90;;;;;;4990775;28;20478;-75
2023/03/14 01:23:53;;;;;;;1.80;0.40;;;11.80;99.90;;;;;;4990835;28;20400;-74
2023/03/14 01:26:22;;;;;;;1.30;0.50;;;11.80;99.90;;;;;;4990132;28;20833;-75
2023/03/14 01:28:49;;;;;;;1.00;0.50;;;11.80;99.90;;;;;;4990639;28;20390;-75
2023/03/14 01:31:15;;;;;;;1.70;0.40;;;11.80;1.00;;;;;;4990621;28;20812;-75
2023/03/14 01:33:41;;;;;;;0.70;0.55;;;11.70;99.90;;;;;;4990854;28;20417;-75
2023/03/14 01:36:08;;;;;;;1.40;0.70;;;11.70;1.00;;;;;;4990377;28;20398;-76
2023/03/14 01:38:35;;;;;;;3.20;0.73;;;11.50;1.00;;;;;;4990665;28;20562;-75
2023/03/14 01:41:01;;;;;;;1.00;0.60;;;11.50;1.00;;;;;;4989307;28;20398;-75
2023/03/14 01:43:27;;;;;;;1.90;0.60;;;11.40;1.00;;;;;;4990935;28;20390;-75
2023/03/14 01:46:05;;;;;;;2.05;0.65;;;11.30;1.00;;;;;;4990126;28;20461;-75
2023/03/14 01:49:23;;;;;;;0.90;0.55;;;11.50;1.00;;;;;;4990651;28;20421;-76
2023/03/14 01:51:52;;;;;;;2.28;0.70;;;10.90;99.90;;;;;;4973447;28;20494;-77
2023/03/14 01:54:21;;;;;;;2.42;0.90;;;10.70;99.90;;;;;;4990333;28;20429;-77
2023/03/14 01:56:54;;;;;;;1.80;0.60;;;10.60;99.90;;;;;;4989991;28;20485;-76
2023/03/14 01:59:20;;;;;;;1.40;0.90;;;10.50;99.90;;;;;;4990324;28;20410;-76
2023/03/14 02:01:47;;;;;;;1.40;0.52;;;10.50;99.90;;;;;;4990596;28;20406;-77
2023/03/14 02:04:16;;;;;;;2.60;0.63;;;10.50;99.90;;;;;;4990607;28;20402;-76
2023/03/14 02:07:13;;;;;;;2.22;0.60;;;10.50;99.90;;;;;;4989965;28;20485;-76
2023/03/14 02:09:39;;;;;;;2.80;0.85;;;10.60;99.90;;;;;;4990074;28;20402;-76
2023/03/14 02:12:07;;;;;;;1.27;0.50;;;10.60;99.90;;;;;;4990599;28;20386;-76
2023/03/14 02:14:34;;;;;;;2.88;0.80;;;10.60;99.90;;;;;;4990204;28;20404;-76
2023/03/14 02:17:02;;;;;;;1.48;0.60;;;10.60;99.90;;;;;;4991368;28;20399;-76
2023/03/14 02:19:47;;;;;;;1.00;0.40;;;10.70;99.90;;;;;;4994042;28;20387;-76
2023/03/14 02:22:15;;;;;;;1.50;0.60;;;10.70;99.90;;;;;;4994090;28;20402;-76
2023/03/14 02:24:59;;;;;;;0.88;0.50;;;10.80;99.90;;;;;;4992641;28;20506;-76
2023/03/14 02:27:25;;;;;;;2.00;0.80;;;10.80;1.00;;;;;;4993461;28;20402;-76
2023/03/14 02:29:59;;;;;;;1.50;0.40;;;11.00;1.00;;;;;;4993676;28;20457;-75
2023/03/14 02:32:27;;;;;;;1.17;0.60;;;11.10;1.00;;;;;;4993705;28;20402;-75
2023/03/14 02:34:56;;;;;;;4.20;0.60;;;11.10;1.00;;;;;;4993340;28;20410;-76
2023/03/14 02:37:26;;;;;;;1.98;0.40;;;11.20;99.90;;;;;;4993427;28;20702;-75
2023/03/14 02:39:52;;;;;;;1.73;0.50;;;11.30;99.90;;;;;;4993658;28;20398;-74
2023/03/14 02:42:18;;;;;;;1.85;0.68;;;11.40;99.90;;;;;;4993643;28;20738;-75
2023/03/14 02:45:05;;;;;;;1.50;0.60;;;11.30;1.00;;;;;;4993336;28;20737;-75
2023/03/14 02:47:31;;;;;;;1.48;0.70;;;11.40;1.00;;;;;;4993216;28;20410;-76
2023/03/14 02:50:04;;;;;;;1.90;0.60;;;11.40;1.00;;;;;;4993512;28;20706;-75
2023/03/14 02:52:29;;;;;;;1.83;0.60;;;11.40;99.90;;;;;;4993374;28;20386;-76
2023/03/14 02:54:55;;;;;;;1.10;0.50;;;11.40;29.70;;;;;;4993425;28;20888;-76
2023/03/14 02:57:20;;;;;;;2.60;0.70;;;11.40;99.90;;;;;;4992688;28;20399;-75
2023/03/14 02:59:46;;;;;;;2.50;1.00;;;11.40;99.90;;;;;;4993293;28;20477;-74
2023/03/14 03:02:11;;;;;;;2.03;0.57;;;11.40;1.00;;;;;;4992955;28;20418;-77
2023/03/14 03:04:37;;;;;;;2.50;0.80;;;11.40;99.90;;;;;;4993312;28;20382;-75
2023/03/14 03:07:02;;;;;;;3.38;0.60;;;11.30;1.00;;;;;;4992655;28;20518;-75
2023/03/14 03:09:28;;;;;;;2.60;0.70;;;11.40;99.90;;;;;;4992864;28;20876;-74
2023/03/14 03:11:53;;;;;;;2.10;1.30;;;11.30;99.90;;;;;;4993075;28;20409;-76
2023/03/14 03:14:19;;;;;;;2.95;0.60;;;11.40;1.00;;;;;;4992939;28;20444;-75
2023/03/14 03:16:44;;;;;;;1.23;0.50;;;11.40;99.90;;;;;;4990980;28;20909;-76
2023/03/14 03:19:10;;;;;;;2.90;0.80;;;11.40;1.00;;;;;;4992556;28;20402;-75
2023/03/14 03:21:35;;;;;;;3.93;0.83;;;11.30;1.00;;;;;;4992835;28;20502;-74
2023/03/14 03:24:01;;;;;;;2.40;0.80;;;11.40;1.00;;;;;;4992996;28;20836;-75
2023/03/14 03:26:26;;;;;;;2.55;0.80;;;11.40;99.90;;;;;;4992396;28;20443;-76
2023/03/14 03:28:52;;;;;;;3.20;0.80;;;11.40;99.90;;;;;;4991184;28;20429;-76
2023/03/14 03:31:17;;;;;;;3.60;1.20;;;11.30;99.90;;;;;;4992599;28;20433;-75
2023/03/14 03:33:43;;;;;;;1.87;0.50;;;11.30;1.00;;;;;;4992885;28;20969;-75
2023/03/14 03:36:09;;;;;;;2.20;0.90;;;11.40;99.90;;;;;;4992232;28;20387;-75
2023/03/14 03:38:35;;;;;;;1.70;0.87;;;11.40;1.00;;;;;;4991355;28;20395;-75
2023/03/14 03:41:06;;;;;;;1.65;0.75;;;11.40;1.00;;;;;;4992468;28;20460;-75
2023/03/14 03:43:31;;;;;;;2.70;0.60;;;11.30;99.90;;;;;;4991018;28;20409;-75
2023/03/14 03:45:57;;;;;;;2.40;0.60;;;11.30;99.90;;;;;;4990810;28;20482;-75
2023/03/14 03:48:22;;;;;;;2.10;0.52;;;11.30;1.00;;;;;;4992176;28;20399;-76
2023/03/14 03:50:48;;;;;;;1.50;0.77;;;11.30;99.90;;;;;;4992389;28;20382;-74
2023/03/14 03:53:14;;;;;;;2.27;0.80;;;11.40;30.60;;;;;;4991037;28;20425;-75
2023/03/14 03:55:42;;;;;;;2.10;0.60;;;11.30;99.90;;;;;;4990684;28;20378;-74
2023/03/14 03:58:08;;;;;;;1.70;0.60;;;11.30;1.00;;;;;;4992099;28;20409;-74
2023/03/14 04:00:33;;;;;;;1.83;0.60;;;11.30;1.00;;;;;;4991973;28;20410;-74
2023/03/14 04:03:00;;;;;;;1.85;0.60;;;11.30;99.90;;;;;;4992172;28;20386;-75
2023/03/14 04:05:25;;;;;;;3.45;0.50;;;11.30;99.90;;;;;;4991743;28;20772;-75
2023/03/14 04:07:51;;;;;;;1.10;0.50;;;11.30;1.00;;;;;;4991736;28;20402;-75
2023/03/14 04:10:17;;;;;;;0.90;0.40;;;11.30;99.90;;;;;;4990251;28;20498;-75
2023/03/14 04:12:42;;;;;;;2.67;0.50;;;11.40;1.00;;;;;;4990577;28;20383;-75
2023/03/14 04:15:08;;;;;;;1.13;0.53;;;11.40;1.00;;;;;;4991933;28;20447;-75
2023/03/14 04:17:34;;;;;;;1.30;0.40;;;11.40;99.90;;;;;;4991425;28;20449;-75
2023/03/14 04:19:59;;;;;;;3.37;0.67;;;11.40;1.00;;;;;;4991682;28;20399;-75
2023/03/14 04:22:25;;;;;;;0.85;0.50;;;11.40;32.70;;;;;;4991740;28;20386;-75
2023/03/14 04:24:50;;;;;;;1.47;0.60;;;11.40;99.90;;;;;;4991277;28;20734;-76
2023/03/14 04:27:16;;;;;;;2.40;0.50;;;11.30;1.00;;;;;;4991108;28;20407;-75
2023/03/14 04:29:42;;;;;;;2.10;0.40;;;11.40;7.90;;;;;;4991609;28;20506;-76
2023/03/14 04:32:08;;;;;;;1.98;0.68;;;11.40;1.00;;;;;;4991800;28;20477;-75
2023/03/14 04:34:33;;;;;;;0.80;0.50;;;11.40;99.90;;;;;;4991886;28;20547;-75
2023/03/14 04:36:59;;;;;;;1.80;0.50;;;11.50;99.90;;;;;;4990126;28;20391;-74
2023/03/14 04:39:24;;;;;;;1.90;0.40;;;11.40;99.90;;;;;;4991147;28;20394;-75
2023/03/14 04:41:50;;;;;;;2.10;0.80;;;11.40;99.90;;;;;;4991532;28;20403;-76
2023/03/14 04:44:15;;;;;;;0.60;0.38;;;11.40;1.00;;;;;;4991783;28;20398;-76
2023/03/14 04:46:41;;;;;;;1.00;0.50;;;11.40;1.00;;;;;;4991399;28;20410;-75
2023/03/14 04:49:06;;;;;;;0.60;0.30;;;11.40;99.90;;;;;;4991520;28;20395;-75
2023/03/14 04:51:32;;;;;;;1.90;0.50;;;11.40;99.90;;;;;;4991361;28;20401;-76
2023/03/14 04:53:58;;;;;;;1.10;0.40;;;11.40;1.00;;;;;;4991734;28;20796;-75
2023/03/14 04:56:23;;;;;;;1.02;0.40;;;11.30;1.00;;;;;;4991316;28;20398;-75
2023/03/14 04:58:49;;;;;;;1.42;0.70;;;11.30;1.00;;;;;;4991432;28;20386;-76
2023/03/14 05:01:15;;;;;;;0.70;0.30;;;11.30;1.00;;;;;;4991618;28;20433;-75
2023/03/14 05:03:40;;;;;;;1.48;0.50;;;11.30;1.00;;;;;;4991409;28;20812;-76
2023/03/14 05:06:06;;;;;;;0.50;0.30;;;11.10;1.00;;;;;;4990917;28;20454;-75
2023/03/14 05:08:31;;;;;;;0.80;0.40;;;11.40;1.00;;;;;;4991035;28;20462;-76
2023/03/14 05:10:58;;;;;;;0.80;0.40;;;11.40;1.00;;;;;;4991320;28;20437;-75
2023/03/14 05:13:24;;;;;;;1.50;0.40;;;11.30;1.00;;;;;;4991304;28;20389;-76
2023/03/14 05:15:50;;;;;;;0.93;0.60;;;11.30;21.10;;;;;;4991142;28;20386;-76
2023/03/14 05:18:16;;;;;;;1.10;0.40;;;11.30;3.00;;;;;;4991294;28;20386;-76
2023/03/14 05:20:43;;;;;;;0.80;0.40;;;11.30;99.90;;;;;;4991635;28;20853;-76
2023/03/14 05:23:09;;;;;;;1.50;0.50;;;11.40;99.90;;;;;;4991050;28;20398;-76
2023/03/14 05:25:35;;;;;;;0.80;0.30;;;11.40;99.90;;;;;;4987449;28;20395;-77
2023/03/14 05:28:00;;;;;;;1.00;0.30;;;11.30;1.00;;;;;;4988045;28;20410;-76
2023/03/14 05:30:27;;;;;;;0.68;0.30;;;11.30;99.90;;;;;;4991179;28;20390;-76
2023/03/14 05:32:53;;;;;;;0.82;0.40;;;11.40;50.90;;;;;;4990815;28;20402;-76
2023/03/14 05:35:19;;;;;;;0.83;0.40;;;11.50;1.00;;;;;;4991049;28;20456;-76
2023/03/14 05:37:45;;;;;;;0.70;0.30;;;11.40;1.00;;;;;;4990896;28;20391;-76
2023/03/14 05:40:11;;;;;;;1.00;0.40;;;11.40;1.00;;;;;;4990083;28;20394;-76
2023/03/14 05:42:36;;;;;;;0.90;0.40;;;11.40;1.00;;;;;;4990934;28;20419;-76
2023/03/14 05:45:02;;;;;;;0.90;0.43;;;11.50;1.00;;;;;;4990448;28;20394;-77
2023/03/14 05:47:28;;;;;;;0.90;0.70;;;11.50;1.00;;;;;;4990017;28;20411;-76
2023/03/14 05:49:53;;;;;;;0.60;0.40;;;11.50;1.00;;;;;;4990908;28;20485;-78
2023/03/14 05:52:19;;;;;;;1.40;0.40;;;11.50;1.00;;;;;;4993179;28;20395;-76
2023/03/14 05:54:44;;;;;;;1.30;0.40;;;11.60;1.00;;;;;;4995852;28;20386;-76
2023/03/14 05:57:10;;;;;;;0.52;0.30;;;11.60;1.00;;;;;;4993225;28;20402;-77
2023/03/14 05:59:35;;;;;;;0.53;0.37;;;11.50;1.00;;;;;;4994468;28;20406;-78
2023/03/14 06:02:01;;;;;;;0.97;0.43;;;11.60;1.00;;;;;;4995479;28;20429;-76
2023/03/14 06:04:27;;;;;;;0.43;0.30;;;11.50;1.00;;;;;;4995147;28;20390;-77
2023/03/14 06:06:52;;;;;;;1.17;0.30;;;11.60;1.00;;;;;;4993079;28;20406;-76
2023/03/14 06:09:19;;;;;;;1.17;0.40;;;11.60;1.00;;;;;;4993001;28;20398;-77
2023/03/14 06:11:46;;;;;;;0.75;0.40;;;11.50;1.00;;;;;;4993203;28;20426;-76
2023/03/14 06:14:11;;;;;;;0.70;0.40;;;11.50;1.00;;;;;;4994404;28;20398;-76
2023/03/14 06:16:37;;;;;;;0.75;0.50;;;11.60;1.00;;;;;;4994002;28;20387;-77
2023/03/14 06:19:02;;;;;;;1.10;0.40;;;11.60;1.00;;;;;;4994328;28;21017;-76
2023/03/14 06:21:28;;;;;;;0.53;0.30;;;11.60;99.90;;;;;;4993646;28;20951;-76
2023/03/14 06:23:54;;;;;;;1.50;0.30;;;11.60;99.90;;;;;;4994227;28;20418;-76
2023/03/14 06:26:19;;;;;;;0.70;0.40;;;11.60;1.00;;;;;;4993427;28;20414;-76
2023/03/14 06:28:45;;;;;;;0.57;0.30;;;11.70;99.90;;;;;;4994004;28;20386;-76
2023/03/14 06:31:10;;;;;;;0.77;0.40;;;11.70;99.90;;;;;;4995233;28;20393;-76
2023/03/14 06:33:36;;;;;;;2.50;0.37;;;11.70;99.90;;;;;;5013123;28;20391;-75
2023/03/14 06:36:01;;;;;;;1.55;0.45;;;11.80;99.90;;;;;;5013053;28;20381;-76
2023/03/14 06:38:27;;;;;;;0.80;0.40;;;11.70;1.00;;;;;;5008350;28;20387;-77
2023/03/14 06:40:52;;;;;;;0.80;0.50;;;11.70;99.90;;;;;;4991631;28;20465;-76
2023/03/14 06:43:18;;;;;;;1.00;0.30;;;11.80;99.90;;;;;;4993731;28;20386;-75
2023/03/14 06:45:43;;;;;;;0.50;0.30;;;11.90;99.90;;;;;;4992385;28;20451;-76
2023/03/14 06:48:09;;;;;;;0.63;0.40;;;11.90;99.90;;;;;;4992975;28;20424;-76
2023/03/14 06:50:34;;;;;;;0.93;0.47;;;11.90;99.90;;;;;;4993839;28;20391;-76
2023/03/14 06:53:00;;;;;;;1.23;0.40;;;11.90;99.90;;;;;;4993503;28;20891;-76
2023/03/14 06:55:26;;;;;;;1.00;0.50;;;12.00;99.90;;;;;;4993671;28;20572;-76
2023/03/14 06:57:51;;;;;;;0.50;0.30;;;12.00;99.90;;;;;;4993453;28;20421;-75
2023/03/14 07:00:17;;;;;;;1.60;0.50;;;12.10;1.00;;;;;;4993449;28;20481;-75
2023/03/14 07:02:42;;;;;;;0.80;0.40;;;12.10;1.00;;;;;;4993395;28;20425;-75
2023/03/14 07:05:10;;;;;;;2.00;0.50;;;12.20;1.00;;;;;;4993410;28;20394;-76
2023/03/14 07:07:35;;;;;;;1.20;0.43;;;12.30;1.00;;;;;;4991916;28;20425;-75
2023/03/14 07:10:01;;;;;;;0.90;0.40;;;12.40;1.00;;;;;;5056845;22;20429;-79
2023/03/14 07:12:26;;;;;;;0.90;0.30;;;12.30;1.00;;;;;;5064669;28;20409;-79
2023/03/14 07:14:52;;;;;;;0.70;0.40;;;12.40;1.00;;;;;;5063420;28;20436;-78
2023/03/14 07:17:17;;;;;;;1.60;0.40;;;12.50;1.00;;;;;;5063042;28;20435;-79
2023/03/14 07:19:43;;;;;;;0.90;0.45;;;12.50;1.00;;;;;;5063004;28;20378;-79
2023/03/14 07:22:08;;;;;;;0.83;0.50;;;12.40;1.00;;;;;;5061516;28;20390;-79
2023/03/14 07:24:34;;;;;;;1.60;1.00;;;12.50;1.00;;;;;;5062845;28;20392;-79
2023/03/14 07:26:59;;;;;;;1.00;0.60;;;12.50;1.00;;;;;;5063276;28;20413;-79
2023/03/14 07:29:25;;;;;;;1.20;0.40;;;12.50;1.00;;;;;;5062845;28;20434;-79
2023/03/14 07:31:50;;;;;;;0.90;0.50;;;12.60;1.00;;;;;;5075943;28;20395;-78
2023/03/14 07:34:16;;;;;;;0.83;0.30;;;12.70;1.00;;;;;;5074871;28;20494;-78
2023/03/14 07:36:41;;;;;;;2.10;0.50;;;12.60;1.00;;;;;;5072097;28;20400;-79
2023/03/14 07:39:07;;;;;;;1.00;0.50;;;12.70;1.00;;;;;;5067146;28;20429;-78
2023/03/14 07:41:33;;;;;;;1.20;0.70;;;12.60;1.00;;;;;;5073502;28;20377;-77
2023/03/14 07:43:59;;;;;;;0.60;0.30;;;12.50;1.00;;;;;;5066108;28;20385;-79
2023/03/14 07:46:24;;;;;;;0.97;0.40;;;12.60;1.00;;;;;;5064735;28;20423;-78
2023/03/14 07:48:50;;;;;;;1.40;0.50;;;12.50;1.00;;;;;;5064967;28;20453;-79
2023/03/14 07:51:15;;;;;;;0.50;0.30;;;12.50;1.00;;;;;;5061411;28;20451;-79
2023/03/14 07:53:42;;;;;;;0.90;0.40;;;12.50;1.00;;;;;;5061003;28;20405;-78
2023/03/14 07:56:08;;;;;;;1.00;0.40;;;12.40;1.00;;;;;;5059666;28;20515;-78
2023/03/14 07:58:34;;;;;;;0.73;0.40;;;12.30;1.00;;;;;;5058247;28;20433;-78
2023/03/14 08:00:59;;;;;;;1.10;0.40;;;12.30;1.00;;;;;;5060610;28;20393;-78
2023/03/14 08:03:25;;;;;;;0.60;0.40;;;12.20;96.30;;;;;;5062673;28;20469;-78
2023/03/14 08:05:50;;;;;;;1.50;0.37;;;12.20;99.90;;;;;;5061589;28;20389;-78
2023/03/14 08:08:16;;;;;;;0.47;0.30;;;12.20;99.90;;;;;;5074025;28;20397;-78
2023/03/14 08:10:42;;;;;;;1.10;0.40;;;12.20;99.90;;;;;;5064418;28;20400;-78
2023/03/14 08:13:09;;;;;;;0.80;0.40;;;12.20;99.90;;;;;;5062659;28;20489;-79
2023/03/14 08:15:36;;;;;;;1.70;0.50;;;12.10;99.90;;;;;;5057555;28;20389;-77
2023/03/14 08:18:02;;;;;;;0.50;0.32;;;12.10;99.90;;;;;;5057865;28;20409;-77
2023/03/14 08:20:29;;;;;;;0.80;0.50;;;12.10;1.00;;;;;;5056494;28;20393;-77
2023/03/14 08:22:58;;;;;;;0.70;0.50;;;12.00;1.00;;;;;;5058521;28;20382;-77
2023/03/14 08:25:25;;;;;;;1.50;0.50;;;12.00;1.00;;;;;;5059394;28;20393;-77
2023/03/14 08:27:51;;;;;;;2.00;0.40;;;11.90;99.90;;;;;;5057997;28;20397;-78
2023/03/14 08:30:18;;;;;;;0.70;0.50;;;11.80;1.00;;;;;;5058297;28;20922;-77
2023/03/14 08:32:44;;;;;;;0.90;0.40;;;11.80;99.90;;;;;;5059379;28;20396;-78
2023/03/14 08:35:10;;;;;;;1.00;0.40;;;11.90;99.90;;;;;;5058424;28;20385;-77
2023/03/14 08:37:36;;;;;;;1.10;0.60;;;11.80;1.00;;;;;;5059758;28;20389;-77
2023/03/14 08:40:06;;;;;;;1.38;0.50;;;11.70;1.00;;;;;;5060150;28;20951;-77
2023/03/14 08:42:32;;;;;;;1.60;0.47;;;11.70;11.10;;;;;;5060902;28;21030;-77
2023/03/14 08:44:58;;;;;;;0.80;0.40;;;11.60;1.00;;;;;;5058056;28;20393;-77
2023/03/14 08:47:24;;;;;;;0.80;0.40;;;11.60;99.90;;;;;;5032793;28;20414;-77
2023/03/14 08:49:49;;;;;;;1.98;1.20;;;11.60;99.90;;;;;;5050079;28;20396;-77
2023/03/14 08:52:16;;;;;;;1.90;1.00;;;11.50;1.00;;;;;;5058337;28;20393;-77
2023/03/14 08:54:44;;;;;;;1.40;0.70;;;11.50;99.90;;;;;;5060027;28;20378;-77
2023/03/14 08:57:10;;;;;;;1.20;0.50;;;11.60;99.90;;;;;;5066661;28;20945;-77
2023/03/14 08:59:36;;;;;;;0.90;0.50;;;11.60;1.00;;;;;;5061745;28;20405;-78
2023/03/14 09:02:03;;;;;;;0.50;0.40;;;11.80;1.00;;;;;;5058514;28;20388;-78
2023/03/14 09:04:29;;;;;;;0.80;0.47;;;12.00;1.00;;;;;;5061110;28;20868;-78
2023/03/14 09:06:55;;;;;;;1.20;0.40;;;12.00;99.90;;;;;;5061646;28;20405;-77
2023/03/14 09:09:21;;;;;;;0.70;0.40;;;12.10;99.90;;;;;;5073812;28;20775;-78
2023/03/14 09:11:47;;;;;;;1.00;0.45;;;12.10;99.90;;;;;;5073754;28;20412;-77
2023/03/14 09:14:13;;;;;;;0.50;0.30;;;11.90;1.00;;;;;;5064809;28;20902;-78
2023/03/14 09:16:39;;;;;;;0.70;0.40;;;11.90;99.90;;;;;;5062398;28;20385;-78
2023/03/14 09:19:05;;;;;;;1.20;0.30;;;11.90;1.00;;;;;;5060107;28;20878;-77
2023/03/14 09:21:31;;;;;;;1.30;0.40;;;11.90;99.90;;;;;;5056763;28;20767;-78
2023/03/14 09:23:56;;;;;;;1.00;0.40;;;11.80;1.00;;;;;;5059686;28;20389;-78
2023/03/14 09:26:22;;;;;;;1.20;0.40;;;11.80;99.90;;;;;;5056989;28;20900;-78
2023/03/14 09:28:48;;;;;;;0.70;0.40;;;11.90;99.90;;;;;;5057161;28;20751;-78
2023/03/14 09:31:14;;;;;;;0.50;0.30;;;11.80;1.00;;;;;;5060031;28;20378;-78
2023/03/14 09:33:40;;;;;;;0.90;0.40;;;11.80;99.90;;;;;;5059687;28;20385;-78
2023/03/14 09:36:07;;;;;;;0.60;0.30;;;11.90;99.90;;;;;;5056708;28;20381;-78
2023/03/14 09:38:33;;;;;;;0.53;0.50;;;11.90;99.90;;;;;;5055949;28;20385;-78
2023/03/14 09:41:02;;;;;;;1.30;0.30;;;11.90;99.90;;;;;;5056678;28;20396;-77
2023/03/14 09:43:31;;;;;;;0.50;0.30;;;11.90;20.60;;;;;;5058088;28;20408;-78
2023/03/14 09:46:00;;;;;;;1.00;0.40;;;11.90;99.90;;;;;;5057717;28;20385;-77
2023/03/14 09:48:32;;;;;;;0.90;0.30;;;11.90;1.00;;;;;;5063544;28;20378;-78
2023/03/14 09:51:03;;;;;;;0.60;0.40;;;11.90;99.90;;;;;;5053798;28;20480;-78
2023/03/14 09:53:44;;;;;;;0.40;0.40;;;11.90;1.00;;;;;;5055887;28;20725;-78
2023/03/14 09:56:30;;;;;;;1.20;0.30;;;11.90;1.00;;;;;;5056360;28;20385;-77
2023/03/14 09:59:02;;;;;;;0.70;0.40;;;11.90;1.00;;;;;;5049868;28;20397;-78
2023/03/14 10:01:33;;;;;;;0.82;0.30;;;11.70;99.90;;;;;;5057970;28;20389;-77
2023/03/14 10:04:12;;;;;;;0.50;0.40;;;11.70;1.00;;;;;;5061224;28;20390;-77
2023/03/14 10:06:38;;;;;;;0.50;0.33;;;11.60;1.00;;;;;;5065923;28;20488;-78
2023/03/14 10:09:05;;;;;;;0.90;0.50;;;11.50;99.90;;;;;;5055165;28;20442;-77
2023/03/14 10:11:31;;;;;;;1.08;0.68;;;11.30;1.00;;;;;;5049232;28;20389;-77
2023/03/14 10:14:12;;;;;;;0.90;0.70;;;11.20;1.00;;;;;;5051249;28;20423;-78
2023/03/14 10:16:43;;;;;;;1.08;0.70;;;11.10;1.00;;;;;;5051297;28;20421;-78
2023/03/14 10:19:15;;;;;;;0.40;0.30;;;11.20;1.00;;;;;;5052922;28;20412;-77
2023/03/14 10:21:42;;;;;;;0.52;0.30;;;11.10;1.00;;;;;;5052710;28;20457;-78
2023/03/14 10:24:19;;;;;;;0.60;0.30;;;11.10;1.00;;;;;;5056288;28;20464;-78
2023/03/14 10:26:48;;;;;;;0.40;0.30;;;11.20;99.90;;;;;;5053746;28;20763;-77
2023/03/14 10:29:14;;;;;;;0.45;0.30;;;11.20;99.90;;;;;;5053634;28;20452;-78
2023/03/14 10:32:04;;;;;;;0.50;0.30;;;11.30;99.90;;;;;;5054347;28;20397;-78
2023/03/14 10:34:32;;;;;;;0.60;0.30;;;11.30;99.90;;;;;;5044930;28;20393;-77
2023/03/14 10:37:08;;;;;;;1.20;0.40;;;11.30;99.90;;;;;;5055552;28;20402;-77
2023/03/14 10:39:50;;;;;;;0.40;0.30;;;11.30;99.90;;;;;;5062406;28;20389;-79
2023/03/14 10:42:31;;;;;;;0.40;0.30;;;11.20;99.90;;;;;;5055757;28;20389;-77
2023/03/14 10:45:29;;;;;;;0.60;0.30;;;11.20;1.00;;;;;;5058306;28;20393;-78
2023/03/14 10:47:57;;;;;;;0.50;0.40;;;11.20;1.00;;;;;;5036824;28;20413;-78
2023/03/14 10:50:29;;;;;;;0.70;0.40;;;11.10;1.00;;;;;;5055737;28;20394;-77
2023/03/14 10:52:56;;;;;;;0.60;0.30;;;11.10;1.00;;;;;;5056622;28;20428;-78
2023/03/14 10:55:25;;;;;;;1.63;0.30;;;11.10;1.00;;;;;;5054114;28;20393;-77
2023/03/14 10:57:52;;;;;;;1.40;0.40;;;11.10;1.00;;;;;;5059514;28;20382;-78
2023/03/14 11:00:20;;;;;;;0.40;0.30;;;11.10;1.00;;;;;;5056197;28;20381;-78
2023/03/14 11:02:58;;;;;;;0.60;0.30;;;11.10;1.00;;;;;;5054287;28;20428;-77
2023/03/14 11:05:59;;;;;;;0.70;0.30;;;11.00;1.00;;;;;;5057371;28;20380;-78
2023/03/14 11:08:35;;;;;;;0.60;0.38;;;11.00;1.00;;;;;;5054398;28;20401;-77
2023/03/14 11:11:21;;;;;;;0.70;0.40;;;11.00;1.00;;;;;;5061382;28;20512;-78
2023/03/14 11:14:11;;;;;;;0.40;0.30;;;11.00;1.00;;;;;;5065492;28;20381;-77
2023/03/14 11:16:54;;;;;;;0.40;0.30;;;11.00;1.00;;;;;;5066062;28;20385;-77
2023/03/14 11:19:36;;;;;;;0.40;0.30;;;10.90;1.00;;;;;;5058723;28;20484;-78
2023/03/14 11:22:23;;;;;;;1.30;0.60;;;10.90;20.40;;;;;;5059977;28;20397;-78
2023/03/14 11:25:14;;;;;;;1.40;0.50;;;10.80;99.90;;;;;;5064182;28;20413;-78
2023/03/14 11:27:51;;;;;;;2.30;0.40;;;10.60;99.90;;;;;;5064117;28;20416;-77
2023/03/14 11:30:30;;;;;;;0.40;0.30;;;10.80;99.90;;;;;;5070837;28;20384;-78
2023/03/14 11:33:14;;;;;;;0.55;0.40;;;10.50;99.90;;;;;;5061167;28;20729;-77
2023/03/14 11:35:55;;;;;;;0.80;0.52;;;10.40;99.90;;;;;;5062238;28;20388;-78
2023/03/14 11:38:39;;;;;;;1.88;0.55;;;10.10;99.90;;;;;;5058970;28;20468;-79
2023/03/14 11:41:12;;;;;;;1.40;0.80;;;8.50;99.90;;;;;;5055835;28;20420;-82
2023/03/14 11:43:41;;;;;;;2.92;0.70;;;7.10;99.90;;;;;;5069126;28;20446;-80
2023/03/14 11:46:14;;;;;;;0.50;0.50;;;7.20;99.90;;;;;;5073466;28;20400;-82
2023/03/14 11:49:06;;;;;;;0.70;0.45;;;7.40;99.90;;;;;;5070684;28;20452;-82
2023/03/14 11:51:46;;;;;;;0.60;0.40;;;7.60;99.90;;;;;;5050120;28;20469;-81
2023/03/14 11:54:17;;;;;;;1.60;0.50;;;7.60;99.90;;;;;;5057001;28;20540;-83
2023/03/14 11:57:02;;;;;;;1.40;0.40;;;7.70;99.40;;;;;;5052470;28;20428;-82
2023/03/14 11:59:41;;;;;;;0.57;0.47;;;7.90;1.00;;;;;;5047313;28;20397;-82
2023/03/14 12:02:21;;;;;;;0.88;0.43;;;8.00;1.00;;;;;;5056220;28;20392;-82
2023/03/14 12:04:53;;;;;;;1.10;0.50;;;8.00;57.90;;;;;;5056986;28;20396;-84
2023/03/14 12:07:39;;;;;;;1.50;0.40;;;8.20;1.00;;;;;;5056887;28;20405;-82
2023/03/14 12:10:05;;;;;;;0.70;0.40;;;8.40;1.00;;;;;;5059662;28;20492;-82
2023/03/14 12:12:31;;;;;;;0.98;0.60;;;8.40;1.00;;;;;;5068249;28;20393;-80
2023/03/14 12:15:02;;;;;;;1.20;0.30;;;8.50;1.00;;;;;;5074516;28;20385;-81
2023/03/14 12:17:37;;;;;;;1.40;0.40;;;8.50;99.90;;;;;;5072778;28;20406;-80
2023/03/14 12:20:14;;;;;;;0.93;0.50;;;8.60;1.00;;;;;;5072457;28;20408;-78
2023/03/14 12:22:46;;;;;;;1.00;0.40;;;8.80;78.70;;;;;;5061106;28;20396;-79
2023/03/14 12:25:17;;;;;;;1.30;0.47;;;9.00;99.90;;;;;;5059617;28;20476;-78
2023/03/14 12:27:56;;;;;;;1.60;0.40;;;9.20;1.00;;;;;;5069510;28;20405;-78
2023/03/14 12:30:32;;;;;;;0.70;0.40;;;9.30;99.90;;;;;;5053285;28;20393;-78
2023/03/14 12:33:10;;;;;;;0.80;0.40;;;9.50;99.90;;;;;;5061997;28;20401;-78
2023/03/14 12:35:41;;;;;;;1.80;0.50;;;9.60;2.90;;;;;;5051528;28;20400;-77
2023/03/14 12:38:13;;;;;;;0.65;0.40;;;10.00;99.90;;;;;;5051536;28;20946;-77
2023/03/14 12:41:03;;;;;;;2.38;0.50;;;10.40;99.90;;;;;;5052458;28;20456;-77
2023/03/14 12:43:33;;;;;;;1.50;0.40;;;10.30;10.40;;;;;;5054655;28;20407;-78
2023/03/14 12:46:17;;;;;;;2.65;0.60;;;10.50;1.00;;;;;;5053857;28;20398;-77
2023/03/14 12:48:45;;;;;;;0.90;0.57;;;11.40;1.00;;;;;;5051691;28;20420;-77
2023/03/14 12:51:17;;;;;;;0.80;0.50;;;11.70;1.00;;;;;;5055934;28;20389;-79
2023/03/14 12:54:09;;;;;;;0.60;0.40;;;11.30;1.00;;;;;;5054305;28;20430;-78
2023/03/14 12:56:40;;;;;;;0.40;0.32;;;10.90;1.00;;;;;;5058252;28;20392;-79
2023/03/14 12:59:56;;;;;;;0.90;0.40;;;10.40;1.00;;;;;;5041029;28;20379;-80
2023/03/14 13:02:29;;;;;;;1.50;0.50;;;10.10;1.00;;;;;;4980488;28;20404;-79